Time;durP1;ratioP1;P1;durP2;ratioP2;P2;SDS_P1;SDS_P2;PMS_P1;PMS_P2;Temp;Humidity;BMP_temperature;BMP_pressure;BME280_temperature;BME280_humidity;BME280_pressure;Samples;Min_cycle;Max_cycle;Signal;HPM_P1;HPM_P2
2023/01/25 00:01:54;;;;;;;;;61.25;42.50;;;;;2.23;73.80;103809.25;5050909;28;11574;-67
2023/01/25 00:04:21;;;;;;;;;39.50;36.00;;;;;2.27;74.22;103804.66;5048498;28;11644;-68
2023/01/25 00:06:49;;;;;;;;;46.75;39.25;;;;;2.28;73.97;103790.44;5044562;28;11577;-66
2023/01/25 00:09:17;;;;;;;;;42.50;36.00;;;;;2.30;74.14;103791.22;5046113;28;11604;-68
2023/01/25 00:11:44;;;;;;;;;38.75;36.50;;;;;2.31;73.92;103792.97;5051114;28;11596;-66
2023/01/25 00:14:11;;;;;;;;;41.50;33.25;;;;;2.33;74.20;103788.44;5048872;28;11568;-66
2023/01/25 00:16:38;;;;;;;;;44.75;38.50;;;;;2.33;73.85;103782.25;5050458;28;11653;-67
2023/01/25 00:19:07;;;;;;;;;47.75;35.25;;;;;2.34;73.78;103782.16;5048158;28;11659;-67
2023/01/25 00:21:34;;;;;;;;;44.25;42.00;;;;;2.33;73.93;103780.44;5047466;28;12318;-66
2023/01/25 00:24:01;;;;;;;;;38.00;36.75;;;;;2.33;73.65;103780.44;5048729;28;11669;-66
2023/01/25 00:26:32;;;;;;;;;37.00;32.75;;;;;2.33;73.82;103780.44;5043900;28;11544;-66
2023/01/25 00:29:00;;;;;;;;;43.00;36.50;;;;;2.30;73.34;103775.25;5042119;28;11524;-68
2023/01/25 00:31:32;;;;;;;;;49.50;42.00;;;;;2.22;73.55;103772.94;5049177;28;11565;-66
2023/01/25 00:34:06;;;;;;;;;46.50;40.00;;;;;2.19;73.79;103775.75;5050283;28;11545;-65
2023/01/25 00:36:39;;;;;;;;;48.75;39.75;;;;;2.18;73.91;103776.66;5049089;28;11546;-66
2023/01/25 00:39:11;;;;;;;;;48.00;39.50;;;;;2.17;73.81;103774.94;5042619;28;11613;-68
2023/01/25 00:41:38;;;;;;;;;39.50;32.00;;;;;2.21;73.78;103775.69;5044988;28;11547;-64
2023/01/25 00:44:05;;;;;;;;;42.00;35.00;;;;;2.11;73.50;103775.22;5048688;28;11601;-67
2023/01/25 00:46:31;;;;;;;;;40.75;33.00;;;;;2.06;73.82;103773.69;5050029;28;11628;-66
2023/01/25 00:48:58;;;;;;;;;53.50;43.25;;;;;2.03;74.11;103765.88;5048333;28;12280;-66
2023/01/25 00:51:25;;;;;;;;;44.50;35.75;;;;;2.08;74.19;103758.56;5048262;28;11559;-66
2023/01/25 00:53:52;;;;;;;;;51.75;37.00;;;;;2.16;73.98;103775.88;5044484;28;11551;-65
2023/01/25 00:56:19;;;;;;;;;49.75;38.50;;;;;2.14;73.83;103764.44;5047296;28;11549;-66
2023/01/25 00:58:46;;;;;;;;;40.75;30.50;;;;;2.14;74.29;103769.75;5037812;28;11550;-65
2023/01/25 01:01:15;;;;;;;;;29.50;26.25;;;;;2.19;74.27;103758.97;5047597;28;11555;-66
2023/01/25 01:03:43;;;;;;;;;38.25;31.50;;;;;2.21;73.79;103754.41;5047425;28;11567;-67
2023/01/25 01:06:11;;;;;;;;;44.75;35.25;;;;;2.22;74.16;103750.81;5047212;28;11613;-66
2023/01/25 01:08:39;;;;;;;;;49.25;34.00;;;;;2.19;73.85;103753.63;5043613;28;11708;-66
2023/01/25 01:11:09;;;;;;;;;49.50;39.00;;;;;2.18;73.80;103747.44;5047350;28;11671;-65
2023/01/25 01:13:35;;;;;;;;;49.00;38.25;;;;;2.17;73.97;103748.38;5045918;28;11573;-66
2023/01/25 01:16:06;;;;;;;;;34.25;30.00;;;;;2.20;74.10;103748.25;5048641;28;11564;-66
2023/01/25 01:18:35;;;;;;;;;47.75;37.00;;;;;2.26;73.71;103746.25;5039690;28;11546;-66
2023/01/25 01:21:01;;;;;;;;;49.00;43.50;;;;;2.25;73.80;103744.53;5043057;28;11545;-66
2023/01/25 01:23:28;;;;;;;;;39.50;32.75;;;;;2.26;73.94;103747.09;5050496;28;11596;-66
2023/01/25 01:25:58;;;;;;;;;52.75;43.25;;;;;2.27;73.80;103742.63;5048748;28;11623;-67
2023/01/25 01:28:26;;;;;;;;;39.50;34.50;;;;;2.27;73.90;103740.88;5050796;28;12242;-66
2023/01/25 01:30:53;;;;;;;;;55.75;36.25;;;;;2.31;73.85;103749.53;5044512;28;11722;-67
2023/01/25 01:33:20;;;;;;;;;56.00;39.75;;;;;2.29;73.97;103736.34;5059206;28;11831;-67
2023/01/25 01:35:46;;;;;;;;;28.50;26.25;;;;;2.30;73.52;103734.53;5043173;28;11562;-66
2023/01/25 01:38:13;;;;;;;;;50.25;40.25;;;;;2.30;74.01;103732.72;5047738;28;11534;-66
2023/01/25 01:40:44;;;;;;;;;47.25;35.75;;;;;2.32;73.88;103732.69;5046595;28;11634;-67
2023/01/25 01:43:18;;;;;;;;;45.00;37.75;;;;;2.30;73.73;103731.88;5044547;28;12418;-66
2023/01/25 01:45:48;;;;;;;;;43.50;38.50;;;;;2.28;73.67;103736.41;5048722;28;11548;-66
2023/01/25 01:48:33;;;;;;;;;43.50;38.75;;;;;2.27;73.60;103739.97;5047326;28;12354;-66
2023/01/25 01:51:15;;;;;;;;;52.75;37.00;;;;;2.28;73.88;103736.41;5049178;28;11566;-66
2023/01/25 01:54:07;;;;;;;;;48.50;36.50;;;;;2.28;74.08;103733.75;5044224;28;11677;-65
2023/01/25 01:56:45;;;;;;;;;50.25;39.00;;;;;2.28;73.79;103737.28;5039522;28;11559;-67
2023/01/25 01:59:12;;;;;;;;;53.00;42.25;;;;;2.28;73.71;103747.03;5043700;28;11593;-66
2023/01/25 02:01:40;;;;;;;;;36.00;31.00;;;;;2.29;73.93;103738.13;5058897;28;11579;-68
2023/01/25 02:04:07;;;;;;;;;48.75;31.25;;;;;2.30;73.75;103732.72;5063540;28;11575;-68
2023/01/25 02:06:44;;;;;;;;;48.25;36.25;;;;;2.28;73.61;103729.31;5047182;28;11581;-65
2023/01/25 02:09:18;;;;;;;;;49.50;33.50;;;;;2.29;73.73;103730.16;5041043;28;11541;-66
2023/01/25 02:11:46;;;;;;;;;57.25;39.50;;;;;2.30;73.71;103730.06;5064617;28;11559;-67
2023/01/25 02:14:14;;;;;;;;;37.75;32.00;;;;;2.31;73.60;103728.28;5043379;28;11587;-66
2023/01/25 02:16:42;;;;;;;;;48.25;37.50;;;;;2.31;73.78;103729.16;5044647;28;11541;-67
2023/01/25 02:19:16;;;;;;;;;44.75;36.25;;;;;2.30;73.71;103727.41;5043119;28;11615;-67
2023/01/25 02:21:45;;;;;;;;;44.00;37.75;;;;;2.30;73.64;103715.94;5050887;28;11553;-66
2023/01/25 02:24:21;;;;;;;;;52.25;45.00;;;;;2.23;73.80;103718.03;5046317;28;11554;-67
2023/01/25 02:26:48;;;;;;;;;56.75;43.75;;;;;2.18;73.67;103718.19;5064673;28;12324;-65
2023/01/25 02:29:18;;;;;;;;;50.50;40.50;;;;;2.12;73.82;103714.97;5047892;28;12624;-64
2023/01/25 02:31:48;;;;;;;;;53.50;45.25;;;;;2.10;74.25;103714.16;5047206;28;11660;-65
2023/01/25 02:34:14;;;;;;;;;34.50;32.00;;;;;2.14;73.87;103718.41;5045425;28;11595;-65
2023/01/25 02:36:41;;;;;;;;;47.50;36.75;;;;;2.12;73.71;103707.88;5052474;28;12444;-64
2023/01/25 02:39:11;;;;;;;;;42.75;34.50;;;;;2.07;74.07;103709.00;5045495;28;11590;-65
2023/01/25 02:41:40;;;;;;;;;34.50;32.50;;;;;2.04;74.50;103703.81;5047170;28;11556;-66
2023/01/25 02:44:10;;;;;;;;;48.00;38.75;;;;;2.07;74.42;103698.38;5061681;28;11543;-65
2023/01/25 02:46:40;;;;;;;;;47.50;39.75;;;;;2.12;74.49;103693.72;5051080;28;11566;-66
2023/01/25 02:49:10;;;;;;;;;52.00;42.25;;;;;2.15;74.35;103691.78;5044862;28;11523;-67
2023/01/25 02:51:40;;;;;;;;;50.75;40.50;;;;;2.17;74.22;103694.38;5051483;28;11664;-66
2023/01/25 02:54:09;;;;;;;;;58.25;43.00;;;;;2.14;74.27;103684.72;5046716;28;12214;-68
2023/01/25 02:56:37;;;;;;;;;55.50;43.75;;;;;2.13;74.07;103677.69;5041003;28;11578;-66
2023/01/25 02:59:04;;;;;;;;;43.75;37.25;;;;;2.07;73.84;103683.31;5050390;28;11565;-65
2023/01/25 03:01:34;;;;;;;;;49.25;37.25;;;;;2.06;73.93;103684.22;5044553;28;11697;-67
2023/01/25 03:04:01;;;;;;;;;47.50;39.75;;;;;2.04;73.76;103677.25;5063354;28;11712;-66
2023/01/25 03:06:28;;;;;;;;;57.25;38.00;;;;;2.00;73.80;103680.97;5049504;28;11675;-67
2023/01/25 03:08:55;;;;;;;;;57.50;41.00;;;;;2.00;74.09;103681.84;5046829;28;11555;-66
2023/01/25 03:11:22;;;;;;;;;50.75;44.25;;;;;2.02;74.01;103684.41;5049562;28;11569;-66
2023/01/25 03:13:50;;;;;;;;;44.50;39.50;;;;;1.98;74.07;103675.72;5051131;28;11590;-67
2023/01/25 03:16:17;;;;;;;;;45.00;40.75;;;;;1.96;74.30;103673.16;5047904;28;11559;-67
2023/01/25 03:18:44;;;;;;;;;56.25;33.50;;;;;1.96;74.40;103678.47;5051363;28;11554;-67
2023/01/25 03:21:17;;;;;;;;;38.50;36.25;;;;;1.94;74.38;103667.03;5051158;28;11572;-66
2023/01/25 03:23:44;;;;;;;;;47.50;42.00;;;;;1.92;74.31;103679.53;5052389;28;11599;-66
2023/01/25 03:26:20;;;;;;;;;43.75;36.75;;;;;1.92;74.12;103668.91;5050524;28;11630;-67
2023/01/25 03:29:00;;;;;;;;;57.25;42.50;;;;;1.94;74.48;103672.34;5050932;28;11683;-66
2023/01/25 03:31:26;;;;;;;;;45.25;33.00;;;;;1.95;74.34;103668.78;5047128;28;11560;-67
2023/01/25 03:33:55;;;;;;;;;49.00;39.00;;;;;1.92;74.01;103665.38;5038922;28;11580;-66
2023/01/25 03:36:25;;;;;;;;;50.00;42.50;;;;;1.90;74.78;103664.56;5031676;28;11577;-67
2023/01/25 03:38:52;;;;;;;;;48.00;41.00;;;;;1.92;74.62;103674.22;5044498;28;11544;-67
2023/01/25 03:41:18;;;;;;;;;41.50;36.25;;;;;1.94;74.29;103667.03;5049927;28;11662;-66
2023/01/25 03:43:45;;;;;;;;;48.75;41.75;;;;;1.93;74.24;103659.13;5047661;28;11574;-67
2023/01/25 03:46:15;;;;;;;;;55.75;43.50;;;;;1.92;74.21;103662.72;5043644;28;11543;-67
2023/01/25 03:48:42;;;;;;;;;45.00;37.25;;;;;1.91;74.02;103656.56;5048641;28;11560;-66
2023/01/25 03:51:09;;;;;;;;;39.00;33.25;;;;;1.90;74.35;103660.13;5050829;28;11540;-67
2023/01/25 03:53:36;;;;;;;;;37.00;33.75;;;;;1.89;74.17;103650.44;5051863;28;11570;-67
2023/01/25 03:56:10;;;;;;;;;49.75;36.75;;;;;1.86;74.45;103634.63;5044257;28;12293;-67
2023/01/25 03:58:41;;;;;;;;;42.25;36.25;;;;;1.90;74.65;103645.97;5050459;28;11568;-68
2023/01/25 04:01:08;;;;;;;;;53.00;42.50;;;;;1.90;74.23;103651.28;5031421;28;11558;-67
2023/01/25 04:03:34;;;;;;;;;40.50;35.00;;;;;1.91;74.55;103648.59;5043922;28;11551;-66
2023/01/25 04:06:02;;;;;;;;;35.50;28.25;;;;;1.90;74.44;103636.22;5043844;28;11561;-68
2023/01/25 04:08:29;;;;;;;;;45.50;35.50;;;;;1.90;74.34;103630.91;5040193;28;11562;-66
2023/01/25 04:11:06;;;;;;;;;44.25;34.00;;;;;1.91;74.60;103635.31;5048168;28;11606;-67
2023/01/25 04:13:35;;;;;;;;;43.25;33.25;;;;;1.91;74.54;103632.66;5049865;28;11623;-67
2023/01/25 04:16:04;;;;;;;;;48.25;33.25;;;;;1.91;74.42;103631.78;5043953;28;11641;-66
2023/01/25 04:18:51;;;;;;;;;38.00;32.25;;;;;1.87;74.12;103628.41;5038846;28;11548;-66
2023/01/25 04:21:18;;;;;;;;;45.75;37.75;;;;;1.85;74.47;103627.59;5043165;28;11562;-66
2023/01/25 04:23:44;;;;;;;;;35.25;31.50;;;;;1.83;74.29;103624.16;5046211;28;11587;-68
2023/01/25 04:26:12;;;;;;;;;43.75;36.00;;;;;1.82;74.44;103627.72;5060050;28;12319;-66
2023/01/25 04:28:42;;;;;;;;;48.75;37.75;;;;;1.85;74.55;103618.78;5049123;28;11612;-68
2023/01/25 04:31:10;;;;;;;;;47.00;34.25;;;;;1.83;74.72;103610.88;5064478;28;11522;-67
2023/01/25 04:33:39;;;;;;;;;40.00;30.50;;;;;1.87;74.52;103623.09;5049013;28;11697;-67
2023/01/25 04:36:07;;;;;;;;;47.00;41.75;;;;;1.87;74.16;103611.63;5045623;28;12339;-67
2023/01/25 04:38:34;;;;;;;;;40.00;35.50;;;;;1.83;74.53;103612.69;5049572;28;12328;-66
2023/01/25 04:41:03;;;;;;;;;50.25;40.50;;;;;1.81;74.48;103617.19;5049302;28;11566;-67
2023/01/25 04:43:30;;;;;;;;;48.50;36.50;;;;;1.77;74.18;103610.28;5048622;28;11564;-66
2023/01/25 04:46:03;;;;;;;;;41.50;31.75;;;;;1.72;74.36;103611.34;5037323;28;12389;-67
2023/01/25 04:48:31;;;;;;;;;43.50;36.00;;;;;1.70;74.17;103613.22;5032218;28;12462;-67
2023/01/25 04:51:00;;;;;;;;;41.75;33.50;;;;;1.68;74.42;103608.91;5029417;28;13057;-65
2023/01/25 04:53:27;;;;;;;;;44.75;39.00;;;;;1.67;74.56;103607.19;5037301;28;11541;-66
2023/01/25 04:55:57;;;;;;;;;45.25;32.75;;;;;1.66;74.36;103611.66;5048133;28;11603;-66
2023/01/25 04:58:25;;;;;;;;;50.50;45.50;;;;;1.62;74.52;103599.44;5049209;28;11628;-66
2023/01/25 05:00:52;;;;;;;;;49.25;41.50;;;;;1.63;74.44;103602.94;5044107;28;11583;-67
2023/01/25 05:03:19;;;;;;;;;42.25;38.25;;;;;1.64;74.28;103594.91;5050022;28;11578;-68
2023/01/25 05:05:47;;;;;;;;;44.75;38.50;;;;;1.59;74.08;103602.22;5048787;28;11621;-66
2023/01/25 05:08:17;;;;;;;;;46.00;33.75;;;;;1.58;74.36;103603.16;5042793;28;11597;-67
2023/01/25 05:10:44;;;;;;;;;38.50;29.00;;;;;1.53;74.17;103598.97;5029841;28;11621;-66
2023/01/25 05:13:23;;;;;;;;;38.00;32.50;;;;;1.51;74.48;103595.53;5033263;28;11666;-66
2023/01/25 05:15:58;;;;;;;;;33.75;28.50;;;;;1.52;73.92;103600.75;5048618;28;11537;-68
2023/01/25 05:18:24;;;;;;;;;42.75;31.75;;;;;1.54;74.37;103600.69;5044898;28;11548;-67
2023/01/25 05:20:56;;;;;;;;;55.00;40.75;;;;;1.51;74.52;103600.84;5046543;28;12340;-68
2023/01/25 05:23:24;;;;;;;;;45.50;31.50;;;;;1.44;74.47;103598.44;5049669;28;11649;-68
2023/01/25 05:28:37;;;;;;;;;36.25;31.00;;;;;1.53;74.60;103598.97;5046003;28;12233;-68
2023/01/25 05:31:14;;;;;;;;;36.50;31.00;;;;;1.56;74.38;103604.16;5039882;28;12309;-67
2023/01/25 05:33:41;;;;;;;;;33.00;27.50;;;;;1.53;74.56;103597.16;5049021;28;11555;-68
2023/01/25 05:36:08;;;;;;;;;41.00;36.50;;;;;1.47;74.48;103600.97;5045402;28;11533;-68
2023/01/25 05:38:36;;;;;;;;;50.75;36.50;;;;;1.47;74.61;103608.94;5046558;28;11535;-68
2023/01/25 05:41:02;;;;;;;;;54.00;45.25;;;;;1.45;74.46;103602.81;5048199;28;11541;-67
2023/01/25 05:43:29;;;;;;;;;64.75;49.50;;;;;1.43;74.40;103602.03;5042568;28;11607;-68
2023/01/25 05:45:57;;;;;;;;;57.50;45.50;;;;;1.42;74.53;103600.31;5046248;28;11571;-68
2023/01/25 05:48:24;;;;;;;;;53.50;45.00;;;;;1.42;74.66;103605.63;5044964;28;12243;-68
2023/01/25 05:50:56;;;;;;;;;39.50;35.00;;;;;1.40;75.08;103596.84;5047108;28;11608;-67
2023/01/25 05:53:26;;;;;;;;;46.00;33.75;;;;;1.42;75.40;103597.66;5043724;28;11721;-66
2023/01/25 05:55:53;;;;;;;;;48.75;37.00;;;;;1.45;75.23;103604.59;5047306;28;11646;-68
2023/01/25 05:58:21;;;;;;;;;43.50;35.00;;;;;1.49;74.70;103600.88;5048782;28;11580;-67
2023/01/25 06:00:47;;;;;;;;;50.50;43.50;;;;;1.44;75.00;103603.75;5051522;28;12368;-68
2023/01/25 06:03:28;;;;;;;;;44.25;38.25;;;;;1.41;74.84;103609.19;5033573;28;11661;-68
2023/01/25 06:05:57;;;;;;;;;55.75;44.25;;;;;1.42;75.03;103602.97;5049753;28;12367;-68
2023/01/25 06:08:24;;;;;;;;;56.00;41.75;;;;;1.45;74.86;103602.81;5047034;28;11553;-67
2023/01/25 06:10:52;;;;;;;;;48.50;38.00;;;;;1.47;74.88;103608.06;5052192;28;11645;-67
2023/01/25 06:13:18;;;;;;;;;34.50;30.00;;;;;1.51;74.98;103596.38;5050691;28;11631;-69
2023/01/25 06:15:54;;;;;;;;;40.25;35.00;;;;;1.55;75.01;103605.09;5032282;28;11576;-68
2023/01/25 06:18:53;;;;;;;;;55.00;43.00;;;;;1.55;74.72;103605.09;5043842;28;11567;-68
2023/01/25 06:21:35;;;;;;;;;53.00;44.00;;;;;1.49;75.05;103600.88;5051881;28;11638;-68
2023/01/25 06:24:03;;;;;;;;;44.50;33.25;;;;;1.49;74.95;103596.44;5050298;28;11693;-69
2023/01/25 06:26:30;;;;;;;;;46.00;32.75;;;;;1.54;75.13;103600.69;5050678;28;11576;-68
2023/01/25 06:28:56;;;;;;;;;46.75;37.25;;;;;1.50;75.00;103599.97;5051616;28;11583;-68
2023/01/25 06:31:22;;;;;;;;;46.50;40.25;;;;;1.51;75.02;103599.03;5047304;28;11556;-68
2023/01/25 06:33:50;;;;;;;;;56.75;46.50;;;;;1.49;75.17;103590.28;5052422;28;11656;-69
2023/01/25 06:36:21;;;;;;;;;47.50;43.50;;;;;1.48;75.23;103596.50;5065934;28;11553;-69
2023/01/25 06:38:49;;;;;;;;;42.00;36.25;;;;;1.48;74.93;103602.69;5051708;28;11527;-68
2023/01/25 06:41:16;;;;;;;;;49.25;36.50;;;;;1.47;74.77;103600.97;5052287;28;11569;-67
2023/01/25 06:43:43;;;;;;;;;43.50;42.00;;;;;1.42;75.16;103605.63;5051823;28;11607;-69
2023/01/25 06:46:11;;;;;;;;;44.25;39.75;;;;;1.41;75.14;103601.22;5050942;28;12246;-68
2023/01/25 06:48:38;;;;;;;;;52.25;35.75;;;;;1.33;75.09;103595.38;5049722;28;11617;-68
2023/01/25 06:51:08;;;;;;;;;53.75;35.50;;;;;1.33;75.02;103594.53;5046278;28;11544;-69
2023/01/25 06:53:38;;;;;;;;;45.75;37.00;;;;;1.34;75.28;103589.16;5052156;28;11532;-69
2023/01/25 06:56:08;;;;;;;;;42.25;35.75;;;;;1.40;75.22;103590.69;5048313;28;12125;-68
2023/01/25 06:58:37;;;;;;;;;46.00;36.00;;;;;1.43;75.31;103578.13;5049092;28;11554;-68
2023/01/25 07:01:07;;;;;;;;;60.75;43.75;;;;;1.43;74.80;103579.94;5044814;28;12260;-69
2023/01/25 07:03:33;;;;;;;;;50.00;41.75;;;;;1.40;74.77;103574.75;5048245;28;11569;-67
2023/01/25 07:06:03;;;;;;;;;52.50;44.25;;;;;1.39;75.08;103579.22;5039944;28;11577;-67
2023/01/25 07:08:31;;;;;;;;;48.75;39.25;;;;;1.38;75.15;103589.91;5032003;28;11649;-67
2023/01/25 07:11:03;;;;;;;;;42.25;39.50;;;;;1.41;75.09;103587.94;5049688;28;11563;-67
2023/01/25 07:13:33;;;;;;;;;58.50;35.50;;;;;1.40;75.36;103580.91;5050434;28;11562;-67
2023/01/25 07:16:03;;;;;;;;;38.75;34.50;;;;;1.39;74.93;103592.47;5041286;28;11688;-68
2023/01/25 07:18:30;;;;;;;;;49.25;39.75;;;;;1.40;74.86;103580.06;5042273;28;11687;-68
2023/01/25 07:21:04;;;;;;;;;48.00;37.00;;;;;1.40;74.95;103593.34;5052149;28;12403;-67
2023/01/25 07:23:32;;;;;;;;;50.50;40.50;;;;;1.39;74.84;103581.00;5051883;28;11532;-68
2023/01/25 07:26:00;;;;;;;;;52.50;33.00;;;;;1.40;75.37;103586.22;5040897;28;11710;-68
2023/01/25 07:28:26;;;;;;;;;52.75;38.50;;;;;1.40;75.10;103580.91;5037526;28;11574;-68
2023/01/25 07:30:53;;;;;;;;;43.50;36.00;;;;;1.39;74.83;103573.03;5051693;28;11641;-69
2023/01/25 07:33:19;;;;;;;;;51.00;44.25;;;;;1.39;75.05;103579.22;5051438;28;12371;-68
2023/01/25 07:35:47;;;;;;;;;55.50;40.25;;;;;1.36;74.99;103567.84;5051493;28;11543;-68
2023/01/25 07:38:13;;;;;;;;;48.75;41.00;;;;;1.35;74.99;103567.00;5051931;28;11640;-68
2023/01/25 07:40:40;;;;;;;;;46.25;39.25;;;;;1.38;75.09;103564.22;5034789;28;11564;-68
2023/01/25 07:43:06;;;;;;;;;53.25;37.50;;;;;1.40;75.14;103564.13;5031552;28;12408;-68
2023/01/25 07:45:35;;;;;;;;;40.50;31.75;;;;;1.40;74.87;103562.34;5035140;28;11685;-68
2023/01/25 07:48:09;;;;;;;;;42.50;38.00;;;;;1.39;74.82;103560.63;5051544;28;11577;-69
2023/01/25 07:50:35;;;;;;;;;49.00;36.75;;;;;1.34;74.91;103554.66;5051726;28;11650;-69
2023/01/25 07:53:01;;;;;;;;;53.50;38.25;;;;;1.31;75.15;103544.19;5032182;28;11594;-69
2023/01/25 07:55:28;;;;;;;;;51.75;39.25;;;;;1.30;74.90;103545.13;5031109;28;11738;-68
2023/01/25 07:57:54;;;;;;;;;56.50;37.50;;;;;1.29;75.24;103546.03;5031457;28;11593;-68
2023/01/25 08:00:21;;;;;;;;;50.25;44.75;;;;;1.22;74.70;103550.75;5031562;28;11576;-67
2023/01/25 08:02:50;;;;;;;;;47.25;36.50;;;;;1.16;75.27;103555.44;5041577;28;11558;-69
2023/01/25 08:05:17;;;;;;;;;40.50;29.75;;;;;1.18;75.43;103548.31;5045627;28;11668;-70
2023/01/25 08:07:45;;;;;;;;;51.50;40.50;;;;;1.08;75.09;103560.22;5030583;28;11557;-67
2023/01/25 08:10:11;;;;;;;;;51.00;39.00;;;;;1.06;75.16;103548.84;5031487;28;11555;-67
2023/01/25 08:12:38;;;;;;;;;49.00;36.25;;;;;1.07;75.26;103563.81;5031095;28;11618;-68
2023/01/25 08:15:05;;;;;;;;;51.75;42.00;;;;;1.06;75.26;103547.03;5030836;28;11699;-67
2023/01/25 08:17:32;;;;;;;;;39.50;36.25;;;;;1.06;75.27;103556.78;5031116;28;11611;-69
2023/01/25 08:20:00;;;;;;;;;42.50;31.50;;;;;1.13;75.63;103559.09;5030604;28;11564;-69
2023/01/25 08:22:27;;;;;;;;;36.25;28.00;;;;;1.19;75.16;103550.88;5037996;28;11562;-67
2023/01/25 08:24:53;;;;;;;;;39.00;32.00;;;;;1.26;75.68;103546.19;5041798;28;11576;-67
2023/01/25 08:27:20;;;;;;;;;41.50;32.75;;;;;1.31;75.18;103551.28;5050970;28;11541;-68
2023/01/25 08:29:46;;;;;;;;;34.50;27.75;;;;;1.35;75.31;103550.22;5040059;28;12101;-68
2023/01/25 08:32:14;;;;;;;;;40.50;28.50;;;;;1.40;74.81;103543.75;5045124;28;11623;-68
2023/01/25 08:34:41;;;;;;;;;30.25;25.75;;;;;1.34;74.23;103540.53;5047304;28;11554;-67
2023/01/25 08:37:08;;;;;;;;;39.50;33.25;;;;;1.32;77.09;103532.63;5041551;28;11534;-68
2023/01/25 08:39:34;;;;;;;;;29.50;27.50;;;;;1.56;76.94;103528.03;5040230;28;11557;-68
2023/01/25 08:42:01;;;;;;;;;41.25;29.75;;;;;1.56;75.65;103532.47;5035842;28;11564;-68
2023/01/25 08:44:27;;;;;;;;;49.25;37.00;;;;;1.53;75.55;103527.28;5037660;28;11553;-68
2023/01/25 08:46:53;;;;;;;;;51.00;35.50;;;;;1.48;75.36;103528.34;5040947;28;11574;-68
2023/01/25 08:49:20;;;;;;;;;45.75;38.75;;;;;1.55;75.80;103525.44;5050211;28;11538;-68
2023/01/25 08:51:49;;;;;;;;;48.25;33.75;;;;;1.49;75.30;103518.59;5031726;28;11647;-70
2023/01/25 08:54:15;;;;;;;;;44.75;30.50;;;;;1.47;74.86;103523.13;5030246;28;11562;-69
2023/01/25 08:56:42;;;;;;;;;43.25;35.50;;;;;1.45;75.25;103538.25;5043844;28;11650;-68
2023/01/25 08:59:12;;;;;;;;;43.50;35.75;;;;;1.41;74.86;103534.88;5050421;28;11542;-68
2023/01/25 09:01:39;;;;;;;;;45.25;36.75;;;;;1.39;75.08;103526.13;5050141;28;11662;-69
2023/01/25 09:04:05;;;;;;;;;45.25;33.75;;;;;1.38;74.87;103524.41;5049886;28;11549;-69
2023/01/25 09:06:32;;;;;;;;;35.00;32.50;;;;;1.39;75.08;103514.66;5048575;28;12343;-67
2023/01/25 09:08:59;;;;;;;;;39.50;34.75;;;;;1.42;74.75;103515.38;5050098;28;11538;-68
2023/01/25 09:11:25;;;;;;;;;48.75;36.75;;;;;1.35;74.49;103508.63;5032992;28;11566;-68
2023/01/25 09:13:52;;;;;;;;;51.50;40.50;;;;;1.37;74.80;103516.50;5044773;28;11561;-67
2023/01/25 09:16:27;;;;;;;;;50.00;37.25;;;;;1.33;74.50;103515.75;5045941;28;11568;-67
2023/01/25 09:18:56;;;;;;;;;46.50;40.00;;;;;1.34;74.82;103516.66;5030184;28;11585;-68
2023/01/25 09:21:22;;;;;;;;;43.25;31.25;;;;;1.32;74.75;103511.41;5043959;28;11601;-66
2023/01/25 09:23:51;;;;;;;;;34.00;32.50;;;;;1.34;75.06;103521.97;5049884;28;11703;-69
2023/01/25 09:26:33;;;;;;;;;38.25;30.50;;;;;1.30;74.55;103505.31;5049755;28;11576;-69
2023/01/25 09:29:00;;;;;;;;;55.00;45.25;;;;;1.29;75.05;103500.06;5050074;28;11614;-67
2023/01/25 09:31:26;;;;;;;;;41.25;31.25;;;;;1.30;74.62;103500.00;5051918;28;11649;-68
2023/01/25 09:34:14;;;;;;;;;39.50;33.50;;;;;1.32;74.78;103497.28;5029460;28;11555;-69
2023/01/25 09:36:41;;;;;;;;;41.25;33.75;;;;;1.32;74.99;103498.13;5053968;28;12310;-68
2023/01/25 09:39:11;;;;;;;;;50.75;38.50;;;;;1.34;75.27;103498.94;5053591;28;11663;-68
2023/01/25 09:42:05;;;;;;;;;52.25;38.75;;;;;1.33;75.05;103494.53;5053947;28;11550;-69
2023/01/25 09:44:49;;;;;;;;;39.50;30.75;;;;;1.34;74.83;103496.28;5053387;28;12260;-69
2023/01/25 09:47:31;;;;;;;;;37.00;33.25;;;;;1.37;74.82;103487.31;5052576;28;11692;-68
2023/01/25 09:50:16;;;;;;;;;44.00;33.25;;;;;1.32;74.79;103492.81;5034400;28;11550;-69
2023/01/25 09:52:59;;;;;;;;;41.75;37.50;;;;;1.32;75.03;103487.50;5033926;28;11560;-69
2023/01/25 09:55:28;;;;;;;;;53.25;40.75;;;;;1.32;74.57;103484.00;5033664;28;11671;-69
2023/01/25 09:57:59;;;;;;;;;42.75;35.25;;;;;1.26;74.71;103468.34;5037214;28;11604;-69
2023/01/25 10:00:31;;;;;;;;;54.75;42.25;;;;;1.24;74.73;103465.78;5033943;28;11556;-68
2023/01/25 10:03:27;;;;;;;;;42.25;35.25;;;;;1.22;74.89;103454.38;5042063;28;12455;-68
2023/01/25 10:05:58;;;;;;;;;41.00;34.00;;;;;1.24;74.86;103444.53;5053319;28;11715;-68
2023/01/25 10:08:38;;;;;;;;;38.00;34.75;;;;;1.24;75.00;103445.41;5040668;28;11577;-69
2023/01/25 10:11:36;;;;;;;;;45.00;36.75;;;;;1.29;75.21;103442.53;5037343;28;11581;-67
2023/01/25 10:14:12;;;;;;;;;31.50;29.50;;;;;1.31;75.10;103438.03;5041063;28;11587;-68
2023/01/25 10:16:48;;;;;;;;;40.75;34.00;;;;;1.33;74.59;103437.97;5051963;28;11541;-68
2023/01/25 10:20:01;;;;;;;;;46.00;34.00;;;;;1.35;75.22;103438.75;5053296;28;11560;-68
2023/01/25 10:22:32;;;;;;;;;47.25;37.75;;;;;1.30;75.18;103438.09;5033272;28;11553;-69
2023/01/25 10:25:21;;;;;;;;;45.50;39.25;;;;;1.31;74.90;103427.44;5033076;28;11560;-68
2023/01/25 10:28:26;;;;;;;;;46.00;37.00;;;;;1.35;75.12;103426.34;5033593;28;11628;-68
2023/01/25 10:31:06;;;;;;;;;38.00;34.00;;;;;1.63;79.75;103422.41;5034522;28;11690;-70
2023/01/25 10:33:37;;;;;;;;;47.25;38.00;;;;;1.69;76.22;103422.09;5033283;28;11582;-68
2023/01/25 10:36:06;;;;;;;;;46.50;37.00;;;;;1.64;75.33;103417.03;5049116;28;12312;-68
2023/01/25 10:38:43;;;;;;;;;54.50;45.25;;;;;1.59;75.11;103411.06;5032969;28;11567;-69
2023/01/25 10:41:28;;;;;;;;;50.75;45.75;;;;;1.55;75.13;103403.34;5032800;28;11567;-69
2023/01/25 10:46:43;;;;;;;;;38.75;34.25;;;;;1.44;74.88;103395.88;5032870;28;12413;-69
2023/01/25 10:49:22;;;;;;;;;61.00;41.25;;;;;1.44;75.09;103388.75;5038487;28;12313;-69
2023/01/25 10:51:48;;;;;;;;;56.50;44.25;;;;;1.46;75.00;103386.06;5048440;28;12237;-69
2023/01/25 10:54:15;;;;;;;;;60.00;48.00;;;;;1.59;76.46;103387.19;5045825;28;11564;-69
2023/01/25 10:56:44;;;;;;;;;35.00;31.00;;;;;1.85;82.85;103380.59;5032796;28;11704;-68
2023/01/25 10:59:23;;;;;;;;;59.75;45.25;;;;;2.46;80.33;103374.00;5038404;28;11554;-64
2023/01/25 11:01:50;;;;;;;;;56.00;47.25;;;;;2.88;77.38;103367.41;5052960;28;11550;-67
2023/01/25 11:04:30;;;;;;;;;50.25;44.25;;;;;2.83;72.76;103358.78;5045156;28;11550;-68
2023/01/25 11:06:57;;;;;;;;;64.50;43.50;;;;;2.58;71.77;103359.22;5032618;28;11788;-68
2023/01/25 11:09:36;;;;;;;;;55.75;41.50;;;;;2.30;71.95;103363.28;5037240;28;11708;-67
2023/01/25 11:12:15;;;;;;;;;51.75;41.00;;;;;2.11;72.12;103367.84;5032242;28;11714;-68
2023/01/25 11:14:42;;;;;;;;;52.75;44.75;;;;;1.96;72.73;103353.53;5042955;28;11609;-68
2023/01/25 11:17:31;;;;;;;;;57.25;45.00;;;;;1.91;73.42;103353.75;5052385;28;11549;-69
2023/01/25 11:20:23;;;;;;;;;49.25;40.25;;;;;1.88;73.60;103348.59;5039650;28;11595;-69
2023/01/25 11:22:56;;;;;;;;;51.25;42.00;;;;;1.83;73.85;103347.97;5033040;28;11652;-67
2023/01/25 11:25:31;;;;;;;;;56.75;42.50;;;;;1.80;73.51;103340.13;5037546;28;11559;-66
2023/01/25 11:28:10;;;;;;;;;43.50;36.25;;;;;1.81;74.12;103315.28;5052153;28;11655;-67
2023/01/25 11:30:37;;;;;;;;;49.50;40.25;;;;;1.82;73.83;103316.16;5034146;28;11537;-67
2023/01/25 11:33:10;;;;;;;;;51.50;45.75;;;;;1.82;73.98;103301.06;5031978;28;11643;-67
2023/01/25 11:35:48;;;;;;;;;49.75;36.75;;;;;1.80;74.10;103289.69;5047565;28;11562;-67
2023/01/25 11:38:18;;;;;;;;;50.50;43.75;;;;;1.88;75.64;103284.00;5034511;28;11616;-68